sensor_id;sensor_type;location;lat;lon;timestamp;temperature;humidity
19031;DHT22;9648;51.130;13.978;2022-10-22T00:01:41;10.20;99.90
19031;DHT22;9648;51.130;13.978;2022-10-22T00:04:08;10.20;99.90
19031;DHT22;9648;51.130;13.978;2022-10-22T00:06:36;10.20;99.90
19031;DHT22;9648;51.130;13.978;2022-10-22T00:09:03;10.20;99.90
19031;DHT22;9648;51.130;13.978;2022-10-22T00:11:29;10.20;99.90
19031;DHT22;9648;51.130;13.978;2022-10-22T00:13:57;10.20;99.90
19031;DHT22;9648;51.130;13.978;2022-10-22T00:16:24;10.20;99.90
19031;DHT22;9648;51.130;13.978;2022-10-22T00:18:50;10.20;99.90
19031;DHT22;9648;51.130;13.978;2022-10-22T00:21:17;10.30;99.90
19031;DHT22;9648;51.130;13.978;2022-10-22T00:23:45;10.20;99.90
19031;DHT22;9648;51.130;13.978;2022-10-22T00:26:12;10.20;99.90
19031;DHT22;9648;51.130;13.978;2022-10-22T00:28:39;10.20;99.90
19031;DHT22;9648;51.130;13.978;2022-10-22T00:31:06;10.10;99.90
19031;DHT22;9648;51.130;13.978;2022-10-22T00:33:33;10.10;99.90
19031;DHT22;9648;51.130;13.978;2022-10-22T00:36:00;10.10;99.90
19031;DHT22;9648;51.130;13.978;2022-10-22T00:38:27;10.00;99.90
19031;DHT22;9648;51.130;13.978;2022-10-22T00:40:55;10.00;99.90
19031;DHT22;9648;51.130;13.978;2022-10-22T00:43:22;10.00;99.90
19031;DHT22;9648;51.130;13.978;2022-10-22T00:45:49;9.90;99.90
19031;DHT22;9648;51.130;13.978;2022-10-22T00:48:18;9.90;99.90
19031;DHT22;9648;51.130;13.978;2022-10-22T00:50:48;9.90;99.90
19031;DHT22;9648;51.130;13.978;2022-10-22T00:53:19;9.90;99.90
19031;DHT22;9648;51.130;13.978;2022-10-22T00:55:49;9.90;99.90
19031;DHT22;9648;51.130;13.978;2022-10-22T00:58:19;9.90;99.90
19031;DHT22;9648;51.130;13.978;2022-10-22T01:00:47;9.90;99.90
19031;DHT22;9648;51.130;13.978;2022-10-22T01:03:15;9.90;99.90
19031;DHT22;9648;51.130;13.978;2022-10-22T01:05:45;9.90;99.90
19031;DHT22;9648;51.130;13.978;2022-10-22T01:08:22;10.00;99.90
19031;DHT22;9648;51.130;13.978;2022-10-22T01:10:59;10.00;99.90
19031;DHT22;9648;51.130;13.978;2022-10-22T01:13:34;10.00;99.90
19031;DHT22;9648;51.130;13.978;2022-10-22T01:16:08;10.00;99.90
19031;DHT22;9648;51.130;13.978;2022-10-22T01:18:43;10.00;99.90
19031;DHT22;9648;51.130;13.978;2022-10-22T01:21:24;10.00;99.90
19031;DHT22;9648;51.130;13.978;2022-10-22T01:24:18;10.00;99.90
19031;DHT22;9648;51.130;13.978;2022-10-22T01:27:19;10.00;99.90
19031;DHT22;9648;51.130;13.978;2022-10-22T01:29:51;10.00;99.90
19031;DHT22;9648;51.130;13.978;2022-10-22T01:32:21;10.10;99.90
19031;DHT22;9648;51.130;13.978;2022-10-22T01:34:51;10.00;99.90
19031;DHT22;9648;51.130;13.978;2022-10-22T01:37:21;10.10;99.90
19031;DHT22;9648;51.130;13.978;2022-10-22T01:39:50;10.10;99.90
19031;DHT22;9648;51.130;13.978;2022-10-22T01:42:17;10.20;99.90
19031;DHT22;9648;51.130;13.978;2022-10-22T01:44:44;10.20;99.90
19031;DHT22;9648;51.130;13.978;2022-10-22T01:47:30;10.20;99.90
19031;DHT22;9648;51.130;13.978;2022-10-22T01:50:26;10.30;99.90
19031;DHT22;9648;51.130;13.978;2022-10-22T01:53:08;10.30;99.90
19031;DHT22;9648;51.130;13.978;2022-10-22T01:55:45;10.30;99.90
19031;DHT22;9648;51.130;13.978;2022-10-22T01:58:21;10.40;99.90
19031;DHT22;9648;51.130;13.978;2022-10-22T02:00:54;10.40;99.90
19031;DHT22;9648;51.130;13.978;2022-10-22T02:03:27;10.40;99.90
19031;DHT22;9648;51.130;13.978;2022-10-22T02:06:00;10.40;99.90
19031;DHT22;9648;51.130;13.978;2022-10-22T02:08:30;10.50;99.90
19031;DHT22;9648;51.130;13.978;2022-10-22T02:10:57;10.50;99.90
19031;DHT22;9648;51.130;13.978;2022-10-22T02:13:27;10.50;99.90
19031;DHT22;9648;51.130;13.978;2022-10-22T02:15:57;10.50;99.90
19031;DHT22;9648;51.130;13.978;2022-10-22T02:18:29;10.50;99.90
19031;DHT22;9648;51.130;13.978;2022-10-22T02:20:58;10.50;99.90
19031;DHT22;9648;51.130;13.978;2022-10-22T02:23:26;10.60;99.90
19031;DHT22;9648;51.130;13.978;2022-10-22T02:26:00;10.50;99.90
19031;DHT22;9648;51.130;13.978;2022-10-22T02:28:31;10.50;99.90
19031;DHT22;9648;51.130;13.978;2022-10-22T02:31:05;10.60;99.90
19031;DHT22;9648;51.130;13.978;2022-10-22T02:33:39;10.60;99.90
19031;DHT22;9648;51.130;13.978;2022-10-22T02:36:08;10.60;99.90
19031;DHT22;9648;51.130;13.978;2022-10-22T02:38:35;10.60;99.90
19031;DHT22;9648;51.130;13.978;2022-10-22T02:41:03;10.60;99.90
19031;DHT22;9648;51.130;13.978;2022-10-22T02:43:30;10.50;99.90
19031;DHT22;9648;51.130;13.978;2022-10-22T02:45:57;10.50;99.90
19031;DHT22;9648;51.130;13.978;2022-10-22T02:48:23;10.50;99.90
19031;DHT22;9648;51.130;13.978;2022-10-22T02:50:52;10.50;99.90
19031;DHT22;9648;51.130;13.978;2022-10-22T02:53:18;10.50;99.90
19031;DHT22;9648;51.130;13.978;2022-10-22T02:55:45;10.50;99.90
19031;DHT22;9648;51.130;13.978;2022-10-22T02:58:12;10.60;99.90
19031;DHT22;9648;51.130;13.978;2022-10-22T03:00:39;10.60;99.90
19031;DHT22;9648;51.130;13.978;2022-10-22T03:03:06;10.60;99.90
19031;DHT22;9648;51.130;13.978;2022-10-22T03:05:33;10.60;99.90
19031;DHT22;9648;51.130;13.978;2022-10-22T03:08:01;10.60;99.90
19031;DHT22;9648;51.130;13.978;2022-10-22T03:10:27;10.70;99.90
19031;DHT22;9648;51.130;13.978;2022-10-22T03:12:54;10.60;99.90
19031;DHT22;9648;51.130;13.978;2022-10-22T03:15:21;10.60;99.90
19031;DHT22;9648;51.130;13.978;2022-10-22T03:17:48;10.60;99.90
19031;DHT22;9648;51.130;13.978;2022-10-22T03:20:15;10.70;99.90
19031;DHT22;9648;51.130;13.978;2022-10-22T03:22:42;10.70;99.90
19031;DHT22;9648;51.130;13.978;2022-10-22T03:25:14;10.70;99.90
19031;DHT22;9648;51.130;13.978;2022-10-22T03:27:42;10.70;99.90
19031;DHT22;9648;51.130;13.978;2022-10-22T03:30:10;10.70;99.90
19031;DHT22;9648;51.130;13.978;2022-10-22T03:32:37;10.70;99.90
19031;DHT22;9648;51.130;13.978;2022-10-22T03:35:04;10.70;99.90
19031;DHT22;9648;51.130;13.978;2022-10-22T03:37:32;10.70;99.90
19031;DHT22;9648;51.130;13.978;2022-10-22T03:40:00;10.70;99.90
19031;DHT22;9648;51.130;13.978;2022-10-22T03:42:29;10.70;99.90
19031;DHT22;9648;51.130;13.978;2022-10-22T03:44:56;10.70;99.90
19031;DHT22;9648;51.130;13.978;2022-10-22T03:47:22;10.70;99.90
19031;DHT22;9648;51.130;13.978;2022-10-22T03:49:50;10.70;99.90
19031;DHT22;9648;51.130;13.978;2022-10-22T03:52:17;10.70;99.90
19031;DHT22;9648;51.130;13.978;2022-10-22T03:54:44;10.70;99.90
19031;DHT22;9648;51.130;13.978;2022-10-22T03:57:11;10.70;99.90
19031;DHT22;9648;51.130;13.978;2022-10-22T03:59:40;10.80;99.90
19031;DHT22;9648;51.130;13.978;2022-10-22T04:02:08;10.70;99.90
19031;DHT22;9648;51.130;13.978;2022-10-22T04:04:35;10.70;99.90
19031;DHT22;9648;51.130;13.978;2022-10-22T04:07:02;10.70;99.90
19031;DHT22;9648;51.130;13.978;2022-10-22T04:09:30;10.70;99.90
19031;DHT22;9648;51.130;13.978;2022-10-22T04:11:57;10.70;99.90
19031;DHT22;9648;51.130;13.978;2022-10-22T04:14:24;10.70;99.90
19031;DHT22;9648;51.130;13.978;2022-10-22T04:16:52;10.70;99.90
19031;DHT22;9648;51.130;13.978;2022-10-22T04:19:19;10.70;99.90
19031;DHT22;9648;51.130;13.978;2022-10-22T04:21:46;10.70;99.90
19031;DHT22;9648;51.130;13.978;2022-10-22T04:24:12;10.70;99.90
19031;DHT22;9648;51.130;13.978;2022-10-22T04:26:39;10.70;99.90
19031;DHT22;9648;51.130;13.978;2022-10-22T04:29:07;10.70;99.90
19031;DHT22;9648;51.130;13.978;2022-10-22T04:31:34;10.70;99.90
19031;DHT22;9648;51.130;13.978;2022-10-22T04:34:02;10.70;99.90
19031;DHT22;9648;51.130;13.978;2022-10-22T04:36:29;10.70;99.90
19031;DHT22;9648;51.130;13.978;2022-10-22T04:38:57;10.70;99.90
19031;DHT22;9648;51.130;13.978;2022-10-22T04:41:26;10.70;99.90
19031;DHT22;9648;51.130;13.978;2022-10-22T04:43:54;10.70;99.90
19031;DHT22;9648;51.130;13.978;2022-10-22T04:46:22;10.70;99.90
19031;DHT22;9648;51.130;13.978;2022-10-22T04:48:50;10.70;99.90
19031;DHT22;9648;51.130;13.978;2022-10-22T04:51:20;10.70;99.90
19031;DHT22;9648;51.130;13.978;2022-10-22T04:53:47;10.70;99.90
19031;DHT22;9648;51.130;13.978;2022-10-22T04:56:16;10.70;99.90
19031;DHT22;9648;51.130;13.978;2022-10-22T04:58:45;10.70;99.90
19031;DHT22;9648;51.130;13.978;2022-10-22T05:01:14;10.70;99.90
19031;DHT22;9648;51.130;13.978;2022-10-22T05:03:42;10.70;99.90
19031;DHT22;9648;51.130;13.978;2022-10-22T05:06:10;10.70;99.90
19031;DHT22;9648;51.130;13.978;2022-10-22T05:08:38;10.70;99.90
19031;DHT22;9648;51.130;13.978;2022-10-22T05:11:12;10.70;99.90
19031;DHT22;9648;51.130;13.978;2022-10-22T05:13:39;10.70;99.90
19031;DHT22;9648;51.130;13.978;2022-10-22T05:16:06;10.70;99.90
19031;DHT22;9648;51.130;13.978;2022-10-22T05:18:34;10.70;99.90
19031;DHT22;9648;51.130;13.978;2022-10-22T05:21:01;10.70;99.90
19031;DHT22;9648;51.130;13.978;2022-10-22T05:23:28;10.70;99.90
19031;DHT22;9648;51.130;13.978;2022-10-22T05:26:00;10.70;99.90
19031;DHT22;9648;51.130;13.978;2022-10-22T05:28:26;10.70;99.90
19031;DHT22;9648;51.130;13.978;2022-10-22T05:30:54;10.70;99.90
19031;DHT22;9648;51.130;13.978;2022-10-22T05:33:21;10.70;99.90
19031;DHT22;9648;51.130;13.978;2022-10-22T05:35:48;10.70;99.90
19031;DHT22;9648;51.130;13.978;2022-10-22T05:38:15;10.70;99.90
19031;DHT22;9648;51.130;13.978;2022-10-22T05:40:42;10.70;99.90
19031;DHT22;9648;51.130;13.978;2022-10-22T05:43:11;10.70;99.90
19031;DHT22;9648;51.130;13.978;2022-10-22T05:45:38;10.70;99.90
19031;DHT22;9648;51.130;13.978;2022-10-22T05:48:05;10.70;99.90
19031;DHT22;9648;51.130;13.978;2022-10-22T05:50:34;10.70;99.90
19031;DHT22;9648;51.130;13.978;2022-10-22T05:53:01;10.70;99.90
19031;DHT22;9648;51.130;13.978;2022-10-22T05:55:28;10.70;99.90
19031;DHT22;9648;51.130;13.978;2022-10-22T05:57:55;10.70;99.90
19031;DHT22;9648;51.130;13.978;2022-10-22T06:00:23;10.80;99.90
19031;DHT22;9648;51.130;13.978;2022-10-22T06:02:50;10.70;99.90
19031;DHT22;9648;51.130;13.978;2022-10-22T06:05:17;10.70;99.90
19031;DHT22;9648;51.130;13.978;2022-10-22T06:07:44;10.70;99.90
19031;DHT22;9648;51.130;13.978;2022-10-22T06:10:14;10.70;99.90
19031;DHT22;9648;51.130;13.978;2022-10-22T06:12:42;10.70;99.90
19031;DHT22;9648;51.130;13.978;2022-10-22T06:15:14;10.70;99.90
19031;DHT22;9648;51.130;13.978;2022-10-22T06:17:44;10.70;99.90
19031;DHT22;9648;51.130;13.978;2022-10-22T06:20:11;10.70;99.90
19031;DHT22;9648;51.130;13.978;2022-10-22T06:22:38;10.80;99.90
19031;DHT22;9648;51.130;13.978;2022-10-22T06:25:06;10.80;99.90
19031;DHT22;9648;51.130;13.978;2022-10-22T06:27:33;10.80;99.90
19031;DHT22;9648;51.130;13.978;2022-10-22T06:30:00;10.80;99.90
19031;DHT22;9648;51.130;13.978;2022-10-22T06:32:27;10.80;99.90
19031;DHT22;9648;51.130;13.978;2022-10-22T06:34:55;10.80;99.90
19031;DHT22;9648;51.130;13.978;2022-10-22T06:37:22;10.90;99.90
19031;DHT22;9648;51.130;13.978;2022-10-22T06:39:49;10.90;99.90
19031;DHT22;9648;51.130;13.978;2022-10-22T06:42:15;10.90;99.90
19031;DHT22;9648;51.130;13.978;2022-10-22T06:44:42;10.90;99.90
19031;DHT22;9648;51.130;13.978;2022-10-22T06:47:09;10.90;99.90
19031;DHT22;9648;51.130;13.978;2022-10-22T06:49:36;10.90;99.90
19031;DHT22;9648;51.130;13.978;2022-10-22T06:52:04;10.90;99.90
19031;DHT22;9648;51.130;13.978;2022-10-22T06:54:31;10.90;99.90
19031;DHT22;9648;51.130;13.978;2022-10-22T06:56:58;11.00;99.90
19031;DHT22;9648;51.130;13.978;2022-10-22T06:59:25;11.00;99.90
19031;DHT22;9648;51.130;13.978;2022-10-22T07:01:52;11.00;99.90
19031;DHT22;9648;51.130;13.978;2022-10-22T07:04:19;11.00;99.90
19031;DHT22;9648;51.130;13.978;2022-10-22T07:06:45;11.00;99.90
19031;DHT22;9648;51.130;13.978;2022-10-22T07:09:14;11.00;99.90
19031;DHT22;9648;51.130;13.978;2022-10-22T07:11:42;11.00;99.90
19031;DHT22;9648;51.130;13.978;2022-10-22T07:14:10;11.00;99.90
19031;DHT22;9648;51.130;13.978;2022-10-22T07:16:37;11.00;99.90
19031;DHT22;9648;51.130;13.978;2022-10-22T07:19:06;11.00;99.90
19031;DHT22;9648;51.130;13.978;2022-10-22T07:21:33;11.00;99.90
19031;DHT22;9648;51.130;13.978;2022-10-22T07:24:00;11.00;99.90
19031;DHT22;9648;51.130;13.978;2022-10-22T07:26:28;11.00;99.90
19031;DHT22;9648;51.130;13.978;2022-10-22T07:28:57;11.00;99.90
19031;DHT22;9648;51.130;13.978;2022-10-22T07:31:24;11.00;99.90
19031;DHT22;9648;51.130;13.978;2022-10-22T07:33:51;11.00;99.90
19031;DHT22;9648;51.130;13.978;2022-10-22T07:36:18;11.00;99.90
19031;DHT22;9648;51.130;13.978;2022-10-22T07:38:45;10.90;99.90
19031;DHT22;9648;51.130;13.978;2022-10-22T07:41:13;10.90;99.90
19031;DHT22;9648;51.130;13.978;2022-10-22T07:43:42;10.90;99.90
19031;DHT22;9648;51.130;13.978;2022-10-22T07:46:09;10.90;99.90
19031;DHT22;9648;51.130;13.978;2022-10-22T07:48:36;11.00;99.90
19031;DHT22;9648;51.130;13.978;2022-10-22T07:51:04;11.00;99.90
19031;DHT22;9648;51.130;13.978;2022-10-22T07:53:31;11.00;99.90
19031;DHT22;9648;51.130;13.978;2022-10-22T07:55:58;11.00;99.90
19031;DHT22;9648;51.130;13.978;2022-10-22T07:58:25;11.00;99.90
19031;DHT22;9648;51.130;13.978;2022-10-22T08:00:56;11.00;99.90
19031;DHT22;9648;51.130;13.978;2022-10-22T08:03:25;11.00;99.90
19031;DHT22;9648;51.130;13.978;2022-10-22T08:05:53;11.00;99.90
19031;DHT22;9648;51.130;13.978;2022-10-22T08:08:21;11.00;99.90
19031;DHT22;9648;51.130;13.978;2022-10-22T08:10:50;11.10;99.90
19031;DHT22;9648;51.130;13.978;2022-10-22T08:13:17;11.10;99.90
19031;DHT22;9648;51.130;13.978;2022-10-22T08:15:44;11.10;99.90
19031;DHT22;9648;51.130;13.978;2022-10-22T08:18:13;11.10;99.90
19031;DHT22;9648;51.130;13.978;2022-10-22T08:20:40;11.10;99.90
19031;DHT22;9648;51.130;13.978;2022-10-22T08:23:07;11.00;99.90
19031;DHT22;9648;51.130;13.978;2022-10-22T08:25:34;11.00;99.90
19031;DHT22;9648;51.130;13.978;2022-10-22T08:28:01;11.00;99.90
19031;DHT22;9648;51.130;13.978;2022-10-22T08:30:28;11.00;99.90
19031;DHT22;9648;51.130;13.978;2022-10-22T08:32:54;11.10;99.90
19031;DHT22;9648;51.130;13.978;2022-10-22T08:35:23;11.20;99.90
19031;DHT22;9648;51.130;13.978;2022-10-22T08:37:49;11.30;99.90
19031;DHT22;9648;51.130;13.978;2022-10-22T08:40:22;11.20;99.90
19031;DHT22;9648;51.130;13.978;2022-10-22T08:43:20;11.30;99.90
19031;DHT22;9648;51.130;13.978;2022-10-22T08:45:57;11.30;99.90
19031;DHT22;9648;51.130;13.978;2022-10-22T08:48:39;11.30;99.90
19031;DHT22;9648;51.130;13.978;2022-10-22T08:51:12;11.40;99.90
19031;DHT22;9648;51.130;13.978;2022-10-22T08:53:45;11.40;99.90
19031;DHT22;9648;51.130;13.978;2022-10-22T08:56:15;11.40;99.90
19031;DHT22;9648;51.130;13.978;2022-10-22T08:58:46;11.50;99.90
19031;DHT22;9648;51.130;13.978;2022-10-22T09:01:20;11.60;99.90
19031;DHT22;9648;51.130;13.978;2022-10-22T09:03:50;11.70;99.90
19031;DHT22;9648;51.130;13.978;2022-10-22T09:06:23;11.80;99.90
19031;DHT22;9648;51.130;13.978;2022-10-22T09:08:51;12.00;99.90
19031;DHT22;9648;51.130;13.978;2022-10-22T09:11:24;12.10;99.90
19031;DHT22;9648;51.130;13.978;2022-10-22T09:13:52;12.20;99.90
19031;DHT22;9648;51.130;13.978;2022-10-22T09:16:23;12.30;99.90
19031;DHT22;9648;51.130;13.978;2022-10-22T09:18:59;12.50;99.90
19031;DHT22;9648;51.130;13.978;2022-10-22T09:21:36;12.60;99.90
19031;DHT22;9648;51.130;13.978;2022-10-22T09:24:08;12.60;99.90
19031;DHT22;9648;51.130;13.978;2022-10-22T09:26:38;12.70;99.90
19031;DHT22;9648;51.130;13.978;2022-10-22T09:29:06;12.70;99.90
19031;DHT22;9648;51.130;13.978;2022-10-22T09:31:33;12.80;99.90
19031;DHT22;9648;51.130;13.978;2022-10-22T09:34:00;12.80;99.90
19031;DHT22;9648;51.130;13.978;2022-10-22T09:36:34;12.80;99.90
19031;DHT22;9648;51.130;13.978;2022-10-22T09:39:01;12.90;99.90
19031;DHT22;9648;51.130;13.978;2022-10-22T09:41:29;13.00;99.90
19031;DHT22;9648;51.130;13.978;2022-10-22T09:43:56;13.10;99.90
19031;DHT22;9648;51.130;13.978;2022-10-22T09:46:27;13.20;99.90
19031;DHT22;9648;51.130;13.978;2022-10-22T09:49:00;13.30;99.90
19031;DHT22;9648;51.130;13.978;2022-10-22T09:51:47;13.40;99.90
19031;DHT22;9648;51.130;13.978;2022-10-22T09:54:19;13.60;99.90
19031;DHT22;9648;51.130;13.978;2022-10-22T09:56:50;13.70;99.90
19031;DHT22;9648;51.130;13.978;2022-10-22T09:59:26;13.90;99.90
19031;DHT22;9648;51.130;13.978;2022-10-22T10:01:59;14.00;99.90
19031;DHT22;9648;51.130;13.978;2022-10-22T10:04:26;14.10;99.90
19031;DHT22;9648;51.130;13.978;2022-10-22T10:06:55;14.20;99.90
19031;DHT22;9648;51.130;13.978;2022-10-22T10:09:24;14.40;99.90
19031;DHT22;9648;51.130;13.978;2022-10-22T10:11:58;14.50;99.90
19031;DHT22;9648;51.130;13.978;2022-10-22T10:14:34;14.60;99.90
19031;DHT22;9648;51.130;13.978;2022-10-22T10:17:09;14.80;99.90
19031;DHT22;9648;51.130;13.978;2022-10-22T10:19:55;15.00;99.90
19031;DHT22;9648;51.130;13.978;2022-10-22T10:22:39;15.20;99.90
19031;DHT22;9648;51.130;13.978;2022-10-22T10:25:26;15.40;99.90
19031;DHT22;9648;51.130;13.978;2022-10-22T10:28:00;15.60;99.90
19031;DHT22;9648;51.130;13.978;2022-10-22T10:30:31;15.70;99.90
19031;DHT22;9648;51.130;13.978;2022-10-22T10:33:09;15.80;99.90
19031;DHT22;9648;51.130;13.978;2022-10-22T10:35:44;15.90;99.90
19031;DHT22;9648;51.130;13.978;2022-10-22T10:38:25;15.80;99.90
19031;DHT22;9648;51.130;13.978;2022-10-22T10:41:05;15.80;99.90
19031;DHT22;9648;51.130;13.978;2022-10-22T10:43:43;15.80;99.90
19031;DHT22;9648;51.130;13.978;2022-10-22T10:46:18;15.60;99.90
19031;DHT22;9648;51.130;13.978;2022-10-22T10:48:49;15.70;99.90
19031;DHT22;9648;51.130;13.978;2022-10-22T10:51:34;15.70;99.90
19031;DHT22;9648;51.130;13.978;2022-10-22T10:54:19;15.80;99.90
19031;DHT22;9648;51.130;13.978;2022-10-22T10:56:50;15.80;99.90
19031;DHT22;9648;51.130;13.978;2022-10-22T10:59:28;15.80;99.90
19031;DHT22;9648;51.130;13.978;2022-10-22T11:02:28;15.80;99.90
19031;DHT22;9648;51.130;13.978;2022-10-22T11:05:11;15.60;99.90
19031;DHT22;9648;51.130;13.978;2022-10-22T11:07:41;15.80;99.90
19031;DHT22;9648;51.130;13.978;2022-10-22T11:10:20;15.90;99.90
19031;DHT22;9648;51.130;13.978;2022-10-22T11:12:52;16.20;99.90
19031;DHT22;9648;51.130;13.978;2022-10-22T11:15:25;16.40;99.90
19031;DHT22;9648;51.130;13.978;2022-10-22T11:17:58;16.40;99.90
19031;DHT22;9648;51.130;13.978;2022-10-22T11:20:31;16.50;99.90
19031;DHT22;9648;51.130;13.978;2022-10-22T11:23:07;16.50;99.90
19031;DHT22;9648;51.130;13.978;2022-10-22T11:25:41;16.50;99.90
19031;DHT22;9648;51.130;13.978;2022-10-22T11:28:13;16.40;99.90
19031;DHT22;9648;51.130;13.978;2022-10-22T11:30:44;16.40;99.90
19031;DHT22;9648;51.130;13.978;2022-10-22T11:33:17;16.20;99.90
19031;DHT22;9648;51.130;13.978;2022-10-22T11:35:45;16.10;99.90
19031;DHT22;9648;51.130;13.978;2022-10-22T11:38:19;16.00;99.90
19031;DHT22;9648;51.130;13.978;2022-10-22T11:40:55;15.90;99.90
19031;DHT22;9648;51.130;13.978;2022-10-22T11:43:27;15.70;99.90
19031;DHT22;9648;51.130;13.978;2022-10-22T11:46:07;15.60;99.90
19031;DHT22;9648;51.130;13.978;2022-10-22T11:48:36;15.30;99.90
19031;DHT22;9648;51.130;13.978;2022-10-22T11:51:33;15.20;99.90
19031;DHT22;9648;51.130;13.978;2022-10-22T11:54:02;15.10;99.90
19031;DHT22;9648;51.130;13.978;2022-10-22T11:56:51;15.00;99.90
19031;DHT22;9648;51.130;13.978;2022-10-22T11:59:38;14.90;99.90
19031;DHT22;9648;51.130;13.978;2022-10-22T12:02:23;14.80;99.90
19031;DHT22;9648;51.130;13.978;2022-10-22T12:04:50;14.70;99.90
19031;DHT22;9648;51.130;13.978;2022-10-22T12:07:32;14.60;99.90
19031;DHT22;9648;51.130;13.978;2022-10-22T12:09:59;14.60;99.90
19031;DHT22;9648;51.130;13.978;2022-10-22T12:12:35;14.60;99.90
19031;DHT22;9648;51.130;13.978;2022-10-22T12:15:22;14.60;99.90
19031;DHT22;9648;51.130;13.978;2022-10-22T12:17:49;14.60;99.90
19031;DHT22;9648;51.130;13.978;2022-10-22T12:20:16;14.70;99.90
19031;DHT22;9648;51.130;13.978;2022-10-22T12:22:44;14.70;99.90
19031;DHT22;9648;51.130;13.978;2022-10-22T12:25:16;14.80;99.90
19031;DHT22;9648;51.130;13.978;2022-10-22T12:27:50;14.90;99.90
19031;DHT22;9648;51.130;13.978;2022-10-22T12:30:19;14.90;99.90
19031;DHT22;9648;51.130;13.978;2022-10-22T12:32:50;15.00;99.90
19031;DHT22;9648;51.130;13.978;2022-10-22T12:35:20;15.00;99.90
19031;DHT22;9648;51.130;13.978;2022-10-22T12:37:49;15.10;99.90
19031;DHT22;9648;51.130;13.978;2022-10-22T12:40:18;15.20;99.90
19031;DHT22;9648;51.130;13.978;2022-10-22T12:42:49;15.30;99.90
19031;DHT22;9648;51.130;13.978;2022-10-22T12:45:16;15.30;99.90
19031;DHT22;9648;51.130;13.978;2022-10-22T12:47:45;15.30;99.90
19031;DHT22;9648;51.130;13.978;2022-10-22T12:50:17;15.10;99.90
19031;DHT22;9648;51.130;13.978;2022-10-22T12:52:45;15.00;99.90
19031;DHT22;9648;51.130;13.978;2022-10-22T12:55:16;14.90;99.90
19031;DHT22;9648;51.130;13.978;2022-10-22T12:57:47;14.90;99.90
19031;DHT22;9648;51.130;13.978;2022-10-22T13:00:22;14.90;99.90
19031;DHT22;9648;51.130;13.978;2022-10-22T13:02:50;14.90;99.90
19031;DHT22;9648;51.130;13.978;2022-10-22T13:05:22;14.90;99.90
19031;DHT22;9648;51.130;13.978;2022-10-22T13:07:53;14.80;99.90
19031;DHT22;9648;51.130;13.978;2022-10-22T13:10:24;14.90;99.90
19031;DHT22;9648;51.130;13.978;2022-10-22T13:12:56;14.90;99.90
19031;DHT22;9648;51.130;13.978;2022-10-22T13:15:34;14.90;99.90
19031;DHT22;9648;51.130;13.978;2022-10-22T13:18:04;14.90;99.90
19031;DHT22;9648;51.130;13.978;2022-10-22T13:20:31;14.90;99.90
19031;DHT22;9648;51.130;13.978;2022-10-22T13:23:02;14.90;99.90
19031;DHT22;9648;51.130;13.978;2022-10-22T13:25:31;15.00;99.90
19031;DHT22;9648;51.130;13.978;2022-10-22T13:28:01;15.10;99.90
19031;DHT22;9648;51.130;13.978;2022-10-22T13:30:29;15.20;99.90
19031;DHT22;9648;51.130;13.978;2022-10-22T13:32:58;15.30;99.90
19031;DHT22;9648;51.130;13.978;2022-10-22T13:35:27;15.40;99.90
19031;DHT22;9648;51.130;13.978;2022-10-22T13:37:56;15.50;99.90
19031;DHT22;9648;51.130;13.978;2022-10-22T13:40:23;15.50;99.90
19031;DHT22;9648;51.130;13.978;2022-10-22T13:42:50;15.50;99.90
19031;DHT22;9648;51.130;13.978;2022-10-22T13:45:19;15.50;99.90
19031;DHT22;9648;51.130;13.978;2022-10-22T13:47:49;15.50;99.90
19031;DHT22;9648;51.130;13.978;2022-10-22T13:50:18;15.50;99.90
19031;DHT22;9648;51.130;13.978;2022-10-22T13:52:47;15.50;99.90
19031;DHT22;9648;51.130;13.978;2022-10-22T13:55:18;15.60;99.90
19031;DHT22;9648;51.130;13.978;2022-10-22T13:57:46;15.70;99.90
19031;DHT22;9648;51.130;13.978;2022-10-22T14:00:15;15.80;99.90
19031;DHT22;9648;51.130;13.978;2022-10-22T14:02:44;15.80;99.90
19031;DHT22;9648;51.130;13.978;2022-10-22T14:05:12;15.80;99.90
19031;DHT22;9648;51.130;13.978;2022-10-22T14:07:39;15.80;99.90
19031;DHT22;9648;51.130;13.978;2022-10-22T14:10:13;15.90;99.90
19031;DHT22;9648;51.130;13.978;2022-10-22T14:12:41;15.90;99.90
19031;DHT22;9648;51.130;13.978;2022-10-22T14:15:09;16.00;99.90
19031;DHT22;9648;51.130;13.978;2022-10-22T14:17:37;16.00;99.90
19031;DHT22;9648;51.130;13.978;2022-10-22T14:20:08;16.00;99.90
19031;DHT22;9648;51.130;13.978;2022-10-22T14:22:36;16.00;99.90
19031;DHT22;9648;51.130;13.978;2022-10-22T14:25:03;16.00;99.90
19031;DHT22;9648;51.130;13.978;2022-10-22T14:27:30;16.00;99.90
19031;DHT22;9648;51.130;13.978;2022-10-22T14:29:57;16.00;99.90
19031;DHT22;9648;51.130;13.978;2022-10-22T14:32:25;16.00;99.90
19031;DHT22;9648;51.130;13.978;2022-10-22T14:34:53;16.00;99.90
19031;DHT22;9648;51.130;13.978;2022-10-22T14:37:21;16.00;99.90
19031;DHT22;9648;51.130;13.978;2022-10-22T14:39:49;15.90;99.90
19031;DHT22;9648;51.130;13.978;2022-10-22T14:42:24;15.80;99.90
19031;DHT22;9648;51.130;13.978;2022-10-22T14:44:51;15.80;99.90
19031;DHT22;9648;51.130;13.978;2022-10-22T14:47:17;15.80;99.90
19031;DHT22;9648;51.130;13.978;2022-10-22T14:49:44;15.70;99.90
19031;DHT22;9648;51.130;13.978;2022-10-22T14:52:11;15.70;99.90
19031;DHT22;9648;51.130;13.978;2022-10-22T14:54:39;15.60;99.90
19031;DHT22;9648;51.130;13.978;2022-10-22T14:57:06;15.60;99.90
19031;DHT22;9648;51.130;13.978;2022-10-22T14:59:35;15.60;99.90
19031;DHT22;9648;51.130;13.978;2022-10-22T15:02:02;15.50;99.90
19031;DHT22;9648;51.130;13.978;2022-10-22T15:04:29;15.40;99.90
19031;DHT22;9648;51.130;13.978;2022-10-22T15:06:56;15.30;99.90
19031;DHT22;9648;51.130;13.978;2022-10-22T15:09:23;15.20;99.90
19031;DHT22;9648;51.130;13.978;2022-10-22T15:11:51;15.10;99.90
19031;DHT22;9648;51.130;13.978;2022-10-22T15:14:18;15.00;99.90
19031;DHT22;9648;51.130;13.978;2022-10-22T15:16:45;15.00;99.90
19031;DHT22;9648;51.130;13.978;2022-10-22T15:19:12;14.90;99.90
19031;DHT22;9648;51.130;13.978;2022-10-22T15:21:39;14.90;99.90
19031;DHT22;9648;51.130;13.978;2022-10-22T15:24:06;14.80;99.90
19031;DHT22;9648;51.130;13.978;2022-10-22T15:26:33;14.70;99.90
19031;DHT22;9648;51.130;13.978;2022-10-22T15:29:02;14.70;99.90
19031;DHT22;9648;51.130;13.978;2022-10-22T15:31:44;14.60;99.90
19031;DHT22;9648;51.130;13.978;2022-10-22T15:34:11;14.50;99.90
19031;DHT22;9648;51.130;13.978;2022-10-22T15:36:38;14.40;99.90
19031;DHT22;9648;51.130;13.978;2022-10-22T15:39:06;14.40;99.90
19031;DHT22;9648;51.130;13.978;2022-10-22T15:41:34;14.30;99.90
19031;DHT22;9648;51.130;13.978;2022-10-22T15:44:02;14.20;99.90
19031;DHT22;9648;51.130;13.978;2022-10-22T15:46:31;14.10;99.90
19031;DHT22;9648;51.130;13.978;2022-10-22T15:48:58;14.10;99.90